sensor_id;sensor_type;location;lat;lon;timestamp;P1;durP1;ratioP1;P2;durP2;ratioP2
22024;SDS011;11176;51.448;6.650;2023-02-28T00:00:38;8.05;;;5.38;;
22024;SDS011;11176;51.448;6.650;2023-02-28T00:03:05;11.88;;;5.15;;
22024;SDS011;11176;51.448;6.650;2023-02-28T00:05:32;9.38;;;5.35;;
22024;SDS011;11176;51.448;6.650;2023-02-28T00:07:58;8.88;;;5.50;;
22024;SDS011;11176;51.448;6.650;2023-02-28T00:10:26;8.55;;;5.82;;
22024;SDS011;11176;51.448;6.650;2023-02-28T00:12:55;9.57;;;5.80;;
22024;SDS011;11176;51.448;6.650;2023-02-28T00:15:26;9.13;;;5.63;;
22024;SDS011;11176;51.448;6.650;2023-02-28T00:17:52;9.80;;;5.68;;
22024;SDS011;11176;51.448;6.650;2023-02-28T00:20:19;9.80;;;5.80;;
22024;SDS011;11176;51.448;6.650;2023-02-28T00:22:47;13.60;;;6.07;;
22024;SDS011;11176;51.448;6.650;2023-02-28T00:25:17;10.38;;;5.65;;
22024;SDS011;11176;51.448;6.650;2023-02-28T00:27:49;10.05;;;5.70;;
22024;SDS011;11176;51.448;6.650;2023-02-28T00:30:20;9.57;;;6.28;;
22024;SDS011;11176;51.448;6.650;2023-02-28T00:32:48;10.35;;;5.63;;
22024;SDS011;11176;51.448;6.650;2023-02-28T00:35:16;8.02;;;5.60;;
22024;SDS011;11176;51.448;6.650;2023-02-28T00:37:43;9.38;;;5.90;;
22024;SDS011;11176;51.448;6.650;2023-02-28T00:40:09;12.73;;;6.00;;
22024;SDS011;11176;51.448;6.650;2023-02-28T00:42:38;8.10;;;5.65;;
22024;SDS011;11176;51.448;6.650;2023-02-28T00:45:06;10.25;;;5.88;;
22024;SDS011;11176;51.448;6.650;2023-02-28T00:47:36;8.05;;;5.63;;
22024;SDS011;11176;51.448;6.650;2023-02-28T00:50:03;8.63;;;5.65;;
22024;SDS011;11176;51.448;6.650;2023-02-28T00:52:30;10.80;;;5.43;;
22024;SDS011;11176;51.448;6.650;2023-02-28T00:54:57;11.13;;;5.68;;
22024;SDS011;11176;51.448;6.650;2023-02-28T00:57:23;9.65;;;6.00;;
22024;SDS011;11176;51.448;6.650;2023-02-28T00:59:49;8.88;;;4.90;;
22024;SDS011;11176;51.448;6.650;2023-02-28T01:02:16;9.07;;;5.55;;
22024;SDS011;11176;51.448;6.650;2023-02-28T01:04:44;10.05;;;5.53;;
22024;SDS011;11176;51.448;6.650;2023-02-28T01:07:10;10.02;;;5.50;;
22024;SDS011;11176;51.448;6.650;2023-02-28T01:09:38;9.88;;;5.10;;
22024;SDS011;11176;51.448;6.650;2023-02-28T01:12:04;8.50;;;4.80;;
22024;SDS011;11176;51.448;6.650;2023-02-28T01:14:33;10.25;;;5.35;;
22024;SDS011;11176;51.448;6.650;2023-02-28T01:17:00;8.43;;;5.07;;
22024;SDS011;11176;51.448;6.650;2023-02-28T01:19:27;8.25;;;4.70;;
22024;SDS011;11176;51.448;6.650;2023-02-28T01:21:53;8.15;;;4.93;;
22024;SDS011;11176;51.448;6.650;2023-02-28T01:24:20;8.43;;;4.78;;
22024;SDS011;11176;51.448;6.650;2023-02-28T01:26:47;6.63;;;4.43;;
22024;SDS011;11176;51.448;6.650;2023-02-28T01:29:13;7.85;;;4.78;;
22024;SDS011;11176;51.448;6.650;2023-02-28T01:31:41;9.75;;;4.70;;
22024;SDS011;11176;51.448;6.650;2023-02-28T01:34:07;9.15;;;4.53;;
22024;SDS011;11176;51.448;6.650;2023-02-28T01:36:33;7.45;;;4.40;;
22024;SDS011;11176;51.448;6.650;2023-02-28T01:39:00;6.40;;;4.22;;
22024;SDS011;11176;51.448;6.650;2023-02-28T01:41:28;10.60;;;4.63;;
22024;SDS011;11176;51.448;6.650;2023-02-28T01:44:04;7.05;;;4.20;;
22024;SDS011;11176;51.448;6.650;2023-02-28T01:46:34;9.05;;;4.60;;
22024;SDS011;11176;51.448;6.650;2023-02-28T01:49:06;7.32;;;4.30;;
22024;SDS011;11176;51.448;6.650;2023-02-28T01:51:44;6.93;;;3.90;;
22024;SDS011;11176;51.448;6.650;2023-02-28T01:54:24;7.80;;;4.22;;
22024;SDS011;11176;51.448;6.650;2023-02-28T01:56:54;11.82;;;5.13;;
22024;SDS011;11176;51.448;6.650;2023-02-28T01:59:27;7.55;;;4.25;;
22024;SDS011;11176;51.448;6.650;2023-02-28T02:01:59;6.53;;;4.38;;
22024;SDS011;11176;51.448;6.650;2023-02-28T02:04:27;7.25;;;4.47;;
22024;SDS011;11176;51.448;6.650;2023-02-28T02:07:07;8.93;;;4.43;;
22024;SDS011;11176;51.448;6.650;2023-02-28T02:09:35;8.75;;;4.97;;
22024;SDS011;11176;51.448;6.650;2023-02-28T02:12:05;6.65;;;4.35;;
22024;SDS011;11176;51.448;6.650;2023-02-28T02:14:54;9.70;;;4.50;;
22024;SDS011;11176;51.448;6.650;2023-02-28T02:25:49;11.27;;;4.80;;
22024;SDS011;11176;51.448;6.650;2023-02-28T02:28:42;8.52;;;4.82;;
22024;SDS011;11176;51.448;6.650;2023-02-28T02:39:53;9.07;;;4.60;;
22024;SDS011;11176;51.448;6.650;2023-02-28T02:42:37;11.18;;;4.90;;
22024;SDS011;11176;51.448;6.650;2023-02-28T02:45:33;8.60;;;4.60;;
22024;SDS011;11176;51.448;6.650;2023-02-28T02:48:06;13.73;;;5.50;;
22024;SDS011;11176;51.448;6.650;2023-02-28T02:50:41;8.23;;;4.53;;
22024;SDS011;11176;51.448;6.650;2023-02-28T02:53:11;7.45;;;5.00;;
22024;SDS011;11176;51.448;6.650;2023-02-28T02:55:42;8.60;;;4.93;;
22024;SDS011;11176;51.448;6.650;2023-02-28T02:58:13;9.73;;;5.32;;
22024;SDS011;11176;51.448;6.650;2023-02-28T03:00:45;9.00;;;4.95;;
22024;SDS011;11176;51.448;6.650;2023-02-28T03:03:16;11.00;;;5.20;;
22024;SDS011;11176;51.448;6.650;2023-02-28T03:08:15;9.05;;;5.10;;
22024;SDS011;11176;51.448;6.650;2023-02-28T03:10:43;10.13;;;5.60;;
22024;SDS011;11176;51.448;6.650;2023-02-28T03:13:34;11.52;;;5.50;;
22024;SDS011;11176;51.448;6.650;2023-02-28T03:16:28;11.15;;;5.45;;
22024;SDS011;11176;51.448;6.650;2023-02-28T03:24:31;9.25;;;5.53;;
22024;SDS011;11176;51.448;6.650;2023-02-28T03:27:16;6.53;;;4.70;;
22024;SDS011;11176;51.448;6.650;2023-02-28T03:29:50;11.25;;;4.90;;
22024;SDS011;11176;51.448;6.650;2023-02-28T03:34:58;9.90;;;5.15;;
22024;SDS011;11176;51.448;6.650;2023-02-28T03:37:32;15.88;;;5.63;;
22024;SDS011;11176;51.448;6.650;2023-02-28T03:40:10;9.88;;;5.40;;
22024;SDS011;11176;51.448;6.650;2023-02-28T03:42:41;7.40;;;4.95;;
22024;SDS011;11176;51.448;6.650;2023-02-28T03:45:13;9.27;;;5.45;;
22024;SDS011;11176;51.448;6.650;2023-02-28T03:50:32;9.75;;;5.80;;
22024;SDS011;11176;51.448;6.650;2023-02-28T03:53:04;8.48;;;5.40;;
22024;SDS011;11176;51.448;6.650;2023-02-28T03:55:34;7.25;;;4.90;;
22024;SDS011;11176;51.448;6.650;2023-02-28T03:58:10;13.32;;;5.30;;
22024;SDS011;11176;51.448;6.650;2023-02-28T04:00:40;11.52;;;5.85;;
22024;SDS011;11176;51.448;6.650;2023-02-28T04:03:13;9.98;;;5.90;;
22024;SDS011;11176;51.448;6.650;2023-02-28T04:05:52;9.70;;;5.43;;
22024;SDS011;11176;51.448;6.650;2023-02-28T04:08:20;12.50;;;5.65;;
22024;SDS011;11176;51.448;6.650;2023-02-28T04:10:50;9.73;;;5.13;;
22024;SDS011;11176;51.448;6.650;2023-02-28T04:13:24;8.93;;;5.38;;
22024;SDS011;11176;51.448;6.650;2023-02-28T04:15:50;8.80;;;5.07;;
22024;SDS011;11176;51.448;6.650;2023-02-28T04:18:17;10.35;;;5.38;;
22024;SDS011;11176;51.448;6.650;2023-02-28T04:20:43;8.43;;;5.00;;
22024;SDS011;11176;51.448;6.650;2023-02-28T04:23:10;8.75;;;5.30;;
22024;SDS011;11176;51.448;6.650;2023-02-28T04:25:36;10.23;;;4.55;;
22024;SDS011;11176;51.448;6.650;2023-02-28T04:28:03;8.98;;;4.90;;
22024;SDS011;11176;51.448;6.650;2023-02-28T04:30:29;7.70;;;4.53;;
22024;SDS011;11176;51.448;6.650;2023-02-28T04:32:58;8.05;;;4.50;;
22024;SDS011;11176;51.448;6.650;2023-02-28T04:35:25;6.65;;;4.53;;
22024;SDS011;11176;51.448;6.650;2023-02-28T04:37:52;5.97;;;4.32;;
22024;SDS011;11176;51.448;6.650;2023-02-28T04:40:18;7.80;;;4.50;;
22024;SDS011;11176;51.448;6.650;2023-02-28T04:42:45;8.70;;;4.57;;
22024;SDS011;11176;51.448;6.650;2023-02-28T04:45:11;7.00;;;4.18;;
22024;SDS011;11176;51.448;6.650;2023-02-28T04:47:38;8.20;;;4.55;;
22024;SDS011;11176;51.448;6.650;2023-02-28T04:50:04;9.45;;;4.57;;
22024;SDS011;11176;51.448;6.650;2023-02-28T04:52:31;8.80;;;4.15;;
22024;SDS011;11176;51.448;6.650;2023-02-28T04:54:58;7.10;;;4.47;;
22024;SDS011;11176;51.448;6.650;2023-02-28T04:57:24;10.20;;;4.07;;
22024;SDS011;11176;51.448;6.650;2023-02-28T04:59:50;7.90;;;4.22;;
22024;SDS011;11176;51.448;6.650;2023-02-28T05:02:17;7.22;;;3.95;;
22024;SDS011;11176;51.448;6.650;2023-02-28T05:04:43;6.65;;;3.88;;
22024;SDS011;11176;51.448;6.650;2023-02-28T05:07:10;8.13;;;3.75;;
22024;SDS011;11176;51.448;6.650;2023-02-28T05:09:36;7.32;;;4.00;;
22024;SDS011;11176;51.448;6.650;2023-02-28T05:12:03;7.30;;;3.83;;
22024;SDS011;11176;51.448;6.650;2023-02-28T05:14:29;7.75;;;4.30;;
22024;SDS011;11176;51.448;6.650;2023-02-28T05:16:56;6.47;;;3.80;;
22024;SDS011;11176;51.448;6.650;2023-02-28T05:19:22;8.07;;;4.30;;
22024;SDS011;11176;51.448;6.650;2023-02-28T05:21:50;6.80;;;3.95;;
22024;SDS011;11176;51.448;6.650;2023-02-28T05:24:19;5.93;;;3.70;;
22024;SDS011;11176;51.448;6.650;2023-02-28T05:26:49;5.75;;;3.53;;
22024;SDS011;11176;51.448;6.650;2023-02-28T05:29:17;8.27;;;3.97;;
22024;SDS011;11176;51.448;6.650;2023-02-28T05:31:44;5.40;;;3.90;;
22024;SDS011;11176;51.448;6.650;2023-02-28T05:34:11;6.05;;;4.00;;
22024;SDS011;11176;51.448;6.650;2023-02-28T05:36:38;6.88;;;3.95;;
22024;SDS011;11176;51.448;6.650;2023-02-28T05:39:06;8.23;;;4.13;;
22024;SDS011;11176;51.448;6.650;2023-02-28T05:41:33;8.02;;;3.78;;
22024;SDS011;11176;51.448;6.650;2023-02-28T05:44:00;6.85;;;3.95;;
22024;SDS011;11176;51.448;6.650;2023-02-28T05:46:26;6.57;;;3.97;;
22024;SDS011;11176;51.448;6.650;2023-02-28T05:48:53;7.90;;;3.95;;
22024;SDS011;11176;51.448;6.650;2023-02-28T05:51:19;7.47;;;4.25;;
22024;SDS011;11176;51.448;6.650;2023-02-28T05:53:46;7.43;;;4.00;;
22024;SDS011;11176;51.448;6.650;2023-02-28T05:56:14;6.20;;;4.15;;
22024;SDS011;11176;51.448;6.650;2023-02-28T05:58:40;7.15;;;3.80;;
22024;SDS011;11176;51.448;6.650;2023-02-28T06:04:04;7.45;;;3.80;;
22024;SDS011;11176;51.448;6.650;2023-02-28T06:06:32;7.20;;;4.53;;
22024;SDS011;11176;51.448;6.650;2023-02-28T06:09:03;6.38;;;4.20;;
22024;SDS011;11176;51.448;6.650;2023-02-28T06:11:30;8.38;;;4.38;;
22024;SDS011;11176;51.448;6.650;2023-02-28T06:13:58;7.25;;;4.63;;
22024;SDS011;11176;51.448;6.650;2023-02-28T06:16:26;7.90;;;4.70;;
22024;SDS011;11176;51.448;6.650;2023-02-28T06:18:54;7.13;;;4.30;;
22024;SDS011;11176;51.448;6.650;2023-02-28T06:21:24;8.73;;;4.07;;
22024;SDS011;11176;51.448;6.650;2023-02-28T06:23:50;9.13;;;4.60;;
22024;SDS011;11176;51.448;6.650;2023-02-28T06:26:17;8.25;;;4.20;;
22024;SDS011;11176;51.448;6.650;2023-02-28T06:28:43;8.13;;;4.00;;
22024;SDS011;11176;51.448;6.650;2023-02-28T06:31:10;6.88;;;4.32;;
22024;SDS011;11176;51.448;6.650;2023-02-28T06:33:38;6.18;;;3.58;;
22024;SDS011;11176;51.448;6.650;2023-02-28T06:36:06;7.38;;;4.20;;
22024;SDS011;11176;51.448;6.650;2023-02-28T06:38:33;10.00;;;4.30;;
22024;SDS011;11176;51.448;6.650;2023-02-28T06:41:00;6.38;;;3.85;;
22024;SDS011;11176;51.448;6.650;2023-02-28T06:43:29;7.93;;;3.90;;
22024;SDS011;11176;51.448;6.650;2023-02-28T06:45:57;6.60;;;3.92;;
22024;SDS011;11176;51.448;6.650;2023-02-28T06:48:25;7.90;;;4.25;;
22024;SDS011;11176;51.448;6.650;2023-02-28T06:50:52;5.40;;;3.88;;
22024;SDS011;11176;51.448;6.650;2023-02-28T06:53:27;8.75;;;4.20;;
22024;SDS011;11176;51.448;6.650;2023-02-28T06:55:54;11.25;;;4.53;;
22024;SDS011;11176;51.448;6.650;2023-02-28T06:58:20;7.20;;;4.30;;
22024;SDS011;11176;51.448;6.650;2023-02-28T07:00:50;7.13;;;4.18;;
22024;SDS011;11176;51.448;6.650;2023-02-28T07:03:17;6.68;;;3.95;;
22024;SDS011;11176;51.448;6.650;2023-02-28T07:05:44;7.72;;;4.20;;
22024;SDS011;11176;51.448;6.650;2023-02-28T07:08:11;8.70;;;3.97;;
22024;SDS011;11176;51.448;6.650;2023-02-28T07:10:38;7.38;;;4.03;;
22024;SDS011;11176;51.448;6.650;2023-02-28T07:13:05;11.90;;;4.78;;
22024;SDS011;11176;51.448;6.650;2023-02-28T07:15:31;8.50;;;4.70;;
22024;SDS011;11176;51.448;6.650;2023-02-28T07:17:58;14.40;;;6.03;;
22024;SDS011;11176;51.448;6.650;2023-02-28T07:20:24;10.85;;;5.65;;
22024;SDS011;11176;51.448;6.650;2023-02-28T07:22:51;10.05;;;5.72;;
22024;SDS011;11176;51.448;6.650;2023-02-28T07:25:22;9.02;;;5.43;;
22024;SDS011;11176;51.448;6.650;2023-02-28T07:27:50;8.30;;;5.03;;
22024;SDS011;11176;51.448;6.650;2023-02-28T07:30:16;7.45;;;4.72;;
22024;SDS011;11176;51.448;6.650;2023-02-28T07:32:43;7.93;;;4.82;;
22024;SDS011;11176;51.448;6.650;2023-02-28T07:35:10;11.13;;;5.53;;
22024;SDS011;11176;51.448;6.650;2023-02-28T07:37:37;9.52;;;5.47;;
22024;SDS011;11176;51.448;6.650;2023-02-28T07:40:04;9.68;;;4.88;;
22024;SDS011;11176;51.448;6.650;2023-02-28T07:42:34;12.43;;;6.03;;
22024;SDS011;11176;51.448;6.650;2023-02-28T07:45:03;12.93;;;6.28;;
22024;SDS011;11176;51.448;6.650;2023-02-28T07:47:31;10.15;;;5.75;;
22024;SDS011;11176;51.448;6.650;2023-02-28T07:49:58;10.35;;;5.53;;
22024;SDS011;11176;51.448;6.650;2023-02-28T07:52:24;9.40;;;4.68;;
22024;SDS011;11176;51.448;6.650;2023-02-28T07:54:51;10.23;;;4.88;;
22024;SDS011;11176;51.448;6.650;2023-02-28T07:57:17;8.38;;;4.63;;
22024;SDS011;11176;51.448;6.650;2023-02-28T07:59:44;8.90;;;4.30;;
22024;SDS011;11176;51.448;6.650;2023-02-28T08:02:12;8.93;;;4.30;;
22024;SDS011;11176;51.448;6.650;2023-02-28T08:04:40;9.77;;;4.95;;
22024;SDS011;11176;51.448;6.650;2023-02-28T08:07:06;8.52;;;4.95;;
22024;SDS011;11176;51.448;6.650;2023-02-28T08:09:34;10.00;;;5.25;;
22024;SDS011;11176;51.448;6.650;2023-02-28T08:12:00;12.40;;;5.78;;
22024;SDS011;11176;51.448;6.650;2023-02-28T08:14:27;18.38;;;6.22;;
22024;SDS011;11176;51.448;6.650;2023-02-28T08:16:53;13.82;;;5.30;;
22024;SDS011;11176;51.448;6.650;2023-02-28T08:19:20;12.68;;;5.65;;
22024;SDS011;11176;51.448;6.650;2023-02-28T08:21:46;9.05;;;4.90;;
22024;SDS011;11176;51.448;6.650;2023-02-28T08:24:13;10.80;;;5.15;;
22024;SDS011;11176;51.448;6.650;2023-02-28T08:26:39;8.57;;;5.00;;
22024;SDS011;11176;51.448;6.650;2023-02-28T08:29:06;12.38;;;5.82;;
22024;SDS011;11176;51.448;6.650;2023-02-28T08:31:32;10.35;;;5.45;;
22024;SDS011;11176;51.448;6.650;2023-02-28T08:33:59;11.57;;;5.70;;
22024;SDS011;11176;51.448;6.650;2023-02-28T08:36:25;14.73;;;6.05;;
22024;SDS011;11176;51.448;6.650;2023-02-28T08:38:54;13.80;;;5.82;;
22024;SDS011;11176;51.448;6.650;2023-02-28T08:41:23;12.38;;;5.05;;
22024;SDS011;11176;51.448;6.650;2023-02-28T08:43:49;10.13;;;4.50;;
22024;SDS011;11176;51.448;6.650;2023-02-28T08:46:16;9.43;;;4.20;;
22024;SDS011;11176;51.448;6.650;2023-02-28T08:48:43;7.25;;;3.90;;
22024;SDS011;11176;51.448;6.650;2023-02-28T08:51:11;7.78;;;4.40;;
22024;SDS011;11176;51.448;6.650;2023-02-28T08:53:39;9.48;;;4.40;;
22024;SDS011;11176;51.448;6.650;2023-02-28T08:56:08;10.38;;;4.57;;
22024;SDS011;11176;51.448;6.650;2023-02-28T08:58:36;11.25;;;4.47;;
22024;SDS011;11176;51.448;6.650;2023-02-28T09:01:07;7.65;;;4.15;;
22024;SDS011;11176;51.448;6.650;2023-02-28T09:03:38;11.15;;;4.30;;
22024;SDS011;11176;51.448;6.650;2023-02-28T09:06:07;9.85;;;4.07;;
22024;SDS011;11176;51.448;6.650;2023-02-28T09:08:34;5.05;;;2.90;;
22024;SDS011;11176;51.448;6.650;2023-02-28T09:11:01;5.93;;;3.08;;
22024;SDS011;11176;51.448;6.650;2023-02-28T09:13:29;4.93;;;2.75;;
22024;SDS011;11176;51.448;6.650;2023-02-28T09:15:59;7.38;;;3.30;;
22024;SDS011;11176;51.448;6.650;2023-02-28T09:18:27;5.28;;;2.55;;
22024;SDS011;11176;51.448;6.650;2023-02-28T09:20:54;4.88;;;2.28;;
22024;SDS011;11176;51.448;6.650;2023-02-28T09:23:20;5.13;;;2.53;;
22024;SDS011;11176;51.448;6.650;2023-02-28T09:25:48;4.35;;;2.90;;
22024;SDS011;11176;51.448;6.650;2023-02-28T09:28:17;6.60;;;2.90;;
22024;SDS011;11176;51.448;6.650;2023-02-28T09:30:45;9.13;;;2.65;;
22024;SDS011;11176;51.448;6.650;2023-02-28T09:33:13;6.00;;;2.30;;
22024;SDS011;11176;51.448;6.650;2023-02-28T09:35:41;7.07;;;2.90;;
22024;SDS011;11176;51.448;6.650;2023-02-28T09:38:09;4.50;;;2.30;;
22024;SDS011;11176;51.448;6.650;2023-02-28T09:40:37;5.32;;;2.63;;
22024;SDS011;11176;51.448;6.650;2023-02-28T09:43:10;3.42;;;2.10;;
22024;SDS011;11176;51.448;6.650;2023-02-28T09:45:41;4.10;;;2.05;;
22024;SDS011;11176;51.448;6.650;2023-02-28T09:48:13;4.45;;;2.42;;
22024;SDS011;11176;51.448;6.650;2023-02-28T09:50:50;5.30;;;2.30;;
22024;SDS011;11176;51.448;6.650;2023-02-28T09:53:21;6.20;;;2.13;;
22024;SDS011;11176;51.448;6.650;2023-02-28T09:56:04;4.97;;;2.25;;
22024;SDS011;11176;51.448;6.650;2023-02-28T09:58:40;6.25;;;2.10;;
22024;SDS011;11176;51.448;6.650;2023-02-28T10:04:08;3.25;;;2.05;;
22024;SDS011;11176;51.448;6.650;2023-02-28T10:06:43;4.47;;;1.55;;
22024;SDS011;11176;51.448;6.650;2023-02-28T10:09:19;3.80;;;2.25;;
22024;SDS011;11176;51.448;6.650;2023-02-28T10:11:50;2.83;;;1.55;;
22024;SDS011;11176;51.448;6.650;2023-02-28T10:14:22;3.70;;;1.80;;
22024;SDS011;11176;51.448;6.650;2023-02-28T10:16:51;3.00;;;1.70;;
22024;SDS011;11176;51.448;6.650;2023-02-28T10:19:28;4.37;;;1.87;;
22024;SDS011;11176;51.448;6.650;2023-02-28T10:22:03;4.35;;;1.80;;
22024;SDS011;11176;51.448;6.650;2023-02-28T10:24:49;3.10;;;1.60;;
22024;SDS011;11176;51.448;6.650;2023-02-28T10:27:24;4.30;;;1.73;;
22024;SDS011;11176;51.448;6.650;2023-02-28T10:29:55;3.72;;;1.75;;
22024;SDS011;11176;51.448;6.650;2023-02-28T10:32:24;3.80;;;1.98;;
22024;SDS011;11176;51.448;6.650;2023-02-28T10:35:10;3.15;;;1.92;;
22024;SDS011;11176;51.448;6.650;2023-02-28T10:37:43;3.60;;;1.50;;
22024;SDS011;11176;51.448;6.650;2023-02-28T10:45:32;5.97;;;1.85;;
22024;SDS011;11176;51.448;6.650;2023-02-28T10:55:42;3.35;;;1.85;;
22024;SDS011;11176;51.448;6.650;2023-02-28T10:58:22;3.28;;;1.58;;
22024;SDS011;11176;51.448;6.650;2023-02-28T11:00:50;4.22;;;1.67;;
22024;SDS011;11176;51.448;6.650;2023-02-28T11:03:27;2.78;;;1.40;;
22024;SDS011;11176;51.448;6.650;2023-02-28T11:06:07;3.47;;;1.65;;
22024;SDS011;11176;51.448;6.650;2023-02-28T11:08:43;4.38;;;1.77;;
22024;SDS011;11176;51.448;6.650;2023-02-28T11:11:18;4.32;;;2.35;;
22024;SDS011;11176;51.448;6.650;2023-02-28T11:13:47;5.75;;;3.80;;
22024;SDS011;11176;51.448;6.650;2023-02-28T11:16:19;4.28;;;2.50;;
22024;SDS011;11176;51.448;6.650;2023-02-28T11:18:47;3.20;;;1.70;;
22024;SDS011;11176;51.448;6.650;2023-02-28T11:21:37;4.22;;;2.05;;
22024;SDS011;11176;51.448;6.650;2023-02-28T11:27:02;6.68;;;2.30;;
22024;SDS011;11176;51.448;6.650;2023-02-28T11:29:29;3.55;;;1.88;;
22024;SDS011;11176;51.448;6.650;2023-02-28T11:32:02;3.90;;;2.00;;
22024;SDS011;11176;51.448;6.650;2023-02-28T11:36:59;2.85;;;1.50;;
22024;SDS011;11176;51.448;6.650;2023-02-28T11:39:31;3.20;;;1.80;;
22024;SDS011;11176;51.448;6.650;2023-02-28T11:50:19;3.20;;;1.50;;
22024;SDS011;11176;51.448;6.650;2023-02-28T11:56:10;3.10;;;1.70;;
22024;SDS011;11176;51.448;6.650;2023-02-28T12:01:28;5.00;;;1.60;;
22024;SDS011;11176;51.448;6.650;2023-02-28T12:04:11;3.53;;;1.60;;
22024;SDS011;11176;51.448;6.650;2023-02-28T12:06:54;3.08;;;1.55;;
22024;SDS011;11176;51.448;6.650;2023-02-28T12:15:00;2.92;;;1.33;;
22024;SDS011;11176;51.448;6.650;2023-02-28T12:17:51;2.53;;;1.20;;
22024;SDS011;11176;51.448;6.650;2023-02-28T12:20:47;1.60;;;1.10;;
22024;SDS011;11176;51.448;6.650;2023-02-28T12:26:44;2.40;;;1.20;;
22024;SDS011;11176;51.448;6.650;2023-02-28T12:29:13;5.10;;;1.45;;
22024;SDS011;11176;51.448;6.650;2023-02-28T12:31:53;2.53;;;1.30;;
22024;SDS011;11176;51.448;6.650;2023-02-28T12:34:39;7.75;;;1.40;;
22024;SDS011;11176;51.448;6.650;2023-02-28T12:37:13;3.58;;;1.33;;
22024;SDS011;11176;51.448;6.650;2023-02-28T12:39:44;3.28;;;1.35;;
22024;SDS011;11176;51.448;6.650;2023-02-28T12:42:21;3.15;;;1.33;;
22024;SDS011;11176;51.448;6.650;2023-02-28T12:45:05;3.55;;;1.13;;
22024;SDS011;11176;51.448;6.650;2023-02-28T12:47:38;3.50;;;1.50;;
22024;SDS011;11176;51.448;6.650;2023-02-28T12:50:10;3.65;;;1.35;;
22024;SDS011;11176;51.448;6.650;2023-02-28T12:58:19;4.00;;;1.60;;
22024;SDS011;11176;51.448;6.650;2023-02-28T13:01:04;3.75;;;1.55;;
22024;SDS011;11176;51.448;6.650;2023-02-28T13:06:54;7.45;;;1.30;;
22024;SDS011;11176;51.448;6.650;2023-02-28T13:09:26;2.33;;;1.27;;
22024;SDS011;11176;51.448;6.650;2023-02-28T13:11:55;3.08;;;1.40;;
22024;SDS011;11176;51.448;6.650;2023-02-28T13:17:00;2.80;;;1.15;;
22024;SDS011;11176;51.448;6.650;2023-02-28T13:19:38;4.40;;;1.60;;
22024;SDS011;11176;51.448;6.650;2023-02-28T13:22:19;2.92;;;1.40;;
22024;SDS011;11176;51.448;6.650;2023-02-28T13:25:50;4.40;;;1.67;;
22024;SDS011;11176;51.448;6.650;2023-02-28T13:28:03;2.25;;;1.27;;
22024;SDS011;11176;51.448;6.650;2023-02-28T13:33:33;2.85;;;1.50;;
22024;SDS011;11176;51.448;6.650;2023-02-28T13:36:27;5.32;;;1.45;;
22024;SDS011;11176;51.448;6.650;2023-02-28T13:38:57;4.85;;;1.80;;
22024;SDS011;11176;51.448;6.650;2023-02-28T13:41:49;2.65;;;1.40;;
22024;SDS011;11176;51.448;6.650;2023-02-28T13:44:17;3.72;;;1.75;;
22024;SDS011;11176;51.448;6.650;2023-02-28T13:51:49;3.45;;;1.65;;
22024;SDS011;11176;51.448;6.650;2023-02-28T13:59:55;4.20;;;1.67;;
22024;SDS011;11176;51.448;6.650;2023-02-28T14:05:28;4.85;;;1.95;;
22024;SDS011;11176;51.448;6.650;2023-02-28T14:07:58;7.10;;;2.22;;
22024;SDS011;11176;51.448;6.650;2023-02-28T14:10:40;4.67;;;1.80;;
22024;SDS011;11176;51.448;6.650;2023-02-28T14:15:55;2.92;;;1.67;;
22024;SDS011;11176;51.448;6.650;2023-02-28T14:18:28;2.53;;;1.65;;
22024;SDS011;11176;51.448;6.650;2023-02-28T14:21:02;3.28;;;1.67;;
22024;SDS011;11176;51.448;6.650;2023-02-28T14:23:40;3.78;;;1.90;;
22024;SDS011;11176;51.448;6.650;2023-02-28T14:29:21;3.60;;;1.80;;
22024;SDS011;11176;51.448;6.650;2023-02-28T14:32:02;3.28;;;1.70;;
22024;SDS011;11176;51.448;6.650;2023-02-28T14:37:41;3.78;;;1.70;;
22024;SDS011;11176;51.448;6.650;2023-02-28T14:40:13;4.45;;;2.30;;
22024;SDS011;11176;51.448;6.650;2023-02-28T14:42:46;5.32;;;2.80;;
22024;SDS011;11176;51.448;6.650;2023-02-28T14:45:20;3.33;;;2.15;;
22024;SDS011;11176;51.448;6.650;2023-02-28T14:47:48;5.82;;;1.80;;
22024;SDS011;11176;51.448;6.650;2023-02-28T14:50:23;6.70;;;2.17;;
22024;SDS011;11176;51.448;6.650;2023-02-28T14:55:28;3.80;;;1.70;;
22024;SDS011;11176;51.448;6.650;2023-02-28T14:57:58;4.45;;;1.95;;
22024;SDS011;11176;51.448;6.650;2023-02-28T15:00:29;4.40;;;2.03;;
22024;SDS011;11176;51.448;6.650;2023-02-28T15:02:58;7.07;;;2.65;;
22024;SDS011;11176;51.448;6.650;2023-02-28T15:05:27;4.80;;;2.80;;
22024;SDS011;11176;51.448;6.650;2023-02-28T15:08:05;3.53;;;2.28;;
22024;SDS011;11176;51.448;6.650;2023-02-28T15:11:01;3.95;;;2.10;;
22024;SDS011;11176;51.448;6.650;2023-02-28T15:16:15;6.63;;;2.50;;
22024;SDS011;11176;51.448;6.650;2023-02-28T15:18:49;3.83;;;2.13;;
22024;SDS011;11176;51.448;6.650;2023-02-28T15:21:20;4.43;;;2.13;;
22024;SDS011;11176;51.448;6.650;2023-02-28T15:23:51;4.57;;;2.47;;
22024;SDS011;11176;51.448;6.650;2023-02-28T15:26:29;5.60;;;2.10;;
22024;SDS011;11176;51.448;6.650;2023-02-28T15:28:59;3.92;;;2.00;;
22024;SDS011;11176;51.448;6.650;2023-02-28T15:31:35;5.87;;;2.20;;
22024;SDS011;11176;51.448;6.650;2023-02-28T15:34:34;4.20;;;2.40;;
22024;SDS011;11176;51.448;6.650;2023-02-28T15:39:57;7.13;;;2.78;;
22024;SDS011;11176;51.448;6.650;2023-02-28T15:42:30;5.57;;;2.90;;
22024;SDS011;11176;51.448;6.650;2023-02-28T15:44:57;5.10;;;2.60;;
22024;SDS011;11176;51.448;6.650;2023-02-28T15:47:26;5.97;;;2.40;;
22024;SDS011;11176;51.448;6.650;2023-02-28T15:49:59;3.95;;;2.50;;
22024;SDS011;11176;51.448;6.650;2023-02-28T15:52:38;4.10;;;2.50;;
22024;SDS011;11176;51.448;6.650;2023-02-28T15:55:19;4.68;;;2.65;;
22024;SDS011;11176;51.448;6.650;2023-02-28T15:57:52;4.40;;;2.50;;
22024;SDS011;11176;51.448;6.650;2023-02-28T16:00:22;6.40;;;2.88;;
22024;SDS011;11176;51.448;6.650;2023-02-28T16:02:51;5.70;;;2.97;;
22024;SDS011;11176;51.448;6.650;2023-02-28T16:05:25;7.03;;;2.83;;
22024;SDS011;11176;51.448;6.650;2023-02-28T16:08:06;5.22;;;2.65;;
22024;SDS011;11176;51.448;6.650;2023-02-28T16:10:39;5.45;;;2.40;;
22024;SDS011;11176;51.448;6.650;2023-02-28T16:13:08;4.47;;;2.53;;
22024;SDS011;11176;51.448;6.650;2023-02-28T16:15:38;5.70;;;2.25;;
22024;SDS011;11176;51.448;6.650;2023-02-28T16:18:10;4.38;;;1.90;;
22024;SDS011;11176;51.448;6.650;2023-02-28T16:20:37;4.38;;;2.15;;
22024;SDS011;11176;51.448;6.650;2023-02-28T16:23:04;4.50;;;2.10;;
22024;SDS011;11176;51.448;6.650;2023-02-28T16:25:37;3.95;;;2.28;;
22024;SDS011;11176;51.448;6.650;2023-02-28T16:28:19;4.25;;;2.33;;
22024;SDS011;11176;51.448;6.650;2023-02-28T16:30:53;5.60;;;2.85;;
22024;SDS011;11176;51.448;6.650;2023-02-28T16:33:20;6.68;;;2.80;;
22024;SDS011;11176;51.448;6.650;2023-02-28T16:35:46;4.45;;;2.70;;
22024;SDS011;11176;51.448;6.650;2023-02-28T16:38:13;5.00;;;2.80;;
22024;SDS011;11176;51.448;6.650;2023-02-28T16:40:40;7.07;;;2.97;;
22024;SDS011;11176;51.448;6.650;2023-02-28T16:43:09;4.72;;;2.70;;
22024;SDS011;11176;51.448;6.650;2023-02-28T16:45:43;5.68;;;3.00;;
22024;SDS011;11176;51.448;6.650;2023-02-28T16:48:11;5.05;;;3.03;;
22024;SDS011;11176;51.448;6.650;2023-02-28T16:50:51;5.20;;;2.75;;
22024;SDS011;11176;51.448;6.650;2023-02-28T16:53:17;5.82;;;3.03;;
22024;SDS011;11176;51.448;6.650;2023-02-28T16:55:44;5.88;;;3.10;;
22024;SDS011;11176;51.448;6.650;2023-02-28T16:58:13;5.75;;;3.33;;
22024;SDS011;11176;51.448;6.650;2023-02-28T17:00:41;5.63;;;2.80;;
22024;SDS011;11176;51.448;6.650;2023-02-28T17:03:24;5.82;;;2.75;;
22024;SDS011;11176;51.448;6.650;2023-02-28T17:05:58;5.15;;;2.63;;
22024;SDS011;11176;51.448;6.650;2023-02-28T17:08:25;4.85;;;3.08;;
22024;SDS011;11176;51.448;6.650;2023-02-28T17:10:52;7.75;;;3.15;;